Pagrindinis puslapis
METAR-TAF:

METAR-TAF

Oro uostai :

Silvio Pettirossi tarptautinis oro uostas

Asunsjonas, Paragvajus

platuma: 25-16S, ilguma: 057-38W, Aukštis: 101 m

Dabartinis oras

Ataskaita buvo paskelbta 15 minutes, ne 15:00 UTC
Vėjas 13 kt iš Pietų/Pietvakarių
Temperatūra 22°C
Drėgmė 29%
Slėgis 1021 hPa
Matomumas 10 km arba daugiau
nėra debesų žemiau 1500 m ir nėra kamuolinių lietaus debesų

METAR: SGAS 201500Z 20013KT CAVOK 22/03 Q1021

Laikas: 11:15 (15:15 UTC)

Prognozė

Ataskaita buvo paskelbta 4 valandos ir 15 minutes, ne 11:00 UTC
Prognozė galioja nuo 20 metu 12 UTC su 21 metu 12 UTC
Vėjas 15 kt iš Pietų
Matomumas 10 km arba daugiau
nėra debesų žemiau 1500 m ir nėra kamuolinių lietaus debesų

TAF: SGAS 201100Z 2012/2112 17015KT CAVOK TX24/2019Z TN11/2109Z

Orai ataskaitas ir orų prognozės (METAR, TAF).

turimą stotys yra geltonos ir raudonos taškus žemėlapyje.

Perkelti pele per norėdami pamatyti stoties vardą.

Tada spustelėkite, norėdami matyti oro stebėjimo ir prognozės.

Norėdami pakeisti žemėlapį: spustelėkite ant žalios mygtukų su juodo kryžiaus žemyn,; žalią mygtuką su brūkšneliu, jei norite nutolinti; arba žalių rodyklių gretimoms žemėlapius.


METAR-TAF: